Rockford, IL (61108)

12:50 AM CDT on September 15, 2014 (GMT -0500)
Rockford Plaza | Change Station
CLOSE
Current Station
Personal Weather Station
Location: Rockford, IL
Elevation: 787 ft
Nearby Weather Stations

Elev 787 ft 42.27 °N, 89.06 °W | Updated 9 seconds ago

Mostly Cloudy
Mostly Cloudy
53.4 °F
Feels Like 53.4 °F
N
0.4
Wind Variable Wind from SSE
Gusts 1.4 mph

Today
High -- | Low -- °F
--% Chance of Precip.
Yesterday
High -- | Low -- °F
Precip. -- in
6:36 AM 7:05 PM
Waning Gibbous, 58% visible
Pressure 30.20 in
Visibility 10.0 miles
Clouds Scattered Clouds 18000 ft
Mostly Cloudy 20000 ft
Dew Point 40 °F
Humidity 59%
Rainfall 0.00 in
Snow Depth Not available.
UV 0 out of 12
Pollen 6.00 out of 12
Ozone Good
PM2.5 Good
Flu Activity Not available.
METAR KRFD 150454Z 00000KT 10SM SCT180 BKN200 11/08 A3020 RMK AO2 SLP226 T01060078

More Conditions Fewer Conditions

Pressure 30.20 in
Visibility 10.0 miles
Clouds Scattered Clouds 18000 ft
Mostly Cloudy 20000 ft
Dew Point 40 °F
Humidity 59%
Rainfall 0.00 in
Snow Depth Not available.
UV 0 out of 12
Pollen 6.00 out of 12
Ozone Good
PM2.5 Good
Flu Activity Not available.
METAR KRFD 150454Z 00000KT 10SM SCT180 BKN200 11/08 A3020 RMK AO2 SLP226 T01060078

More Conditions Fewer Conditions

10-Day Weather Forecast

Almanac

Astronomy

Sep. 15, 2014 Rise Set
Actual Time 6:36 AM CDT 7:05 PM CDT
Civil Twilight 6:07 AM CDT 7:33 PM CDT
Nautical Twilight 5:34 AM CDT 8:06 PM CDT
Astronomical Twilight 5:00 AM CDT 8:41 PM CDT
Moon 11:42 PM CDT 1:42 PM CDT
Length of Visible Light 13h 25m
Length of Day
12h 29m
Tomorrow will be 2m 49s shorter.
Waning Gibbous, 58% of the Moon is Illuminated
Today
Waning Gibbous
Sep 15
Last Quarter
Sep 24
New
Oct 1
First Quarter
Oct 8
Full

Today's Extremes

State Highs State Lows

Community

WunderPhotos

Upload Photos

1,753,416 photos uploaded!

WunderBlogs® & News

Nearby

Air Quality

  Air Quality AQ Index Pollutant
Yesterday Good
OZONE
Yesterday Good
PM2.5
Current Good
PM2.5
Current Good
OZONE
Sunday Good
PM2.5
Monday Good
PM2.5
Tuesday Good
PM2.5
Wednesday Good
PM2.5

Snow Depth

Station Depth Elevation
No new snow has been reported.

Earthquake Activity

City Distance Mag. Time & Date
No recent earthquake activity has been reported nearby.
Minimum magnitude displayed is 2.5.

Coastal Water Temperatures

Place Temperature
No Stations Reporting

Nearby Weather Stations